Volzhskiy-8 — UCBR — position and weather

sailwx.info

Track history (hours):
 
Tides and Currents Weather Stations Pressure Air Temp Water Temp Dewpoint Dewpoint Depression Visibility Wind Speed Wind Dir Waves Ship Positions

Volzhskiy-8

Last reported at 2018-Feb-21 20:15 UTC. Time now 2018-Feb-24 02:22 UTC.
Position N 45°31' E 036°49'.

Length 107 m; draft 2.7 m.

MMSI: 273310200.

Date/timePositionNaut miles runAvg speedWind from/ knotsBaromVisibWave heightAir tempDewpointWater temp
2018-Feb-21 20:15N 45°31' E 036°49'3 6.9
2018-Feb-21 19:45N 45°30' E 036°45'2 6.9
2018-Feb-21 19:29N 45°28' E 036°43'3 7.0
2018-Feb-21 19:00N 45°25' E 036°41'4 7.2
2018-Feb-21 18:31N 45°22' E 036°40'3 6.9
2018-Feb-21 18:00N 45°20' E 036°36'4 7.0
2018-Feb-21 17:30N 45°19' E 036°31'3 6.3
2018-Feb-21 17:00N 45°16' E 036°29'4 7.1
2018-Feb-21 16:26N 45°12' E 036°30'1 1.1
2018-Feb-21 15:59N 45°12' E 036°30'0 0.0
2018-Feb-21 14:43N 45°12' E 036°30'0 0.0
2018-Feb-21 14:29N 45°12' E 036°30'1 0.1
2018-Feb-20 13:38N 45°11' E 036°28'1 8.4
2018-Feb-20 13:28N 45°13' E 036°28'4 8.2
2018-Feb-20 13:00N 45°17' E 036°28'4 7.4
2018-Feb-20 12:30N 45°19' E 036°32'4 8.1
2018-Feb-20 12:00N 45°21' E 036°37'3 7.0
2018-Feb-20 11:30N 45°24' E 036°40'4 8.1
2018-Feb-20 11:00N 45°28' E 036°40'1 2.4
2018-Feb-20 10:31N 45°29' E 036°40'0 0.0
2018-Feb-20 10:00N 45°29' E 036°40'0 0.0
2018-Feb-20 09:30N 45°29' E 036°40'0 0.0
2018-Feb-20 09:01N 45°29' E 036°39'3 5.2
2018-Feb-20 08:30N 45°30' E 036°43'4 7.4
2018-Feb-20 08:00N 45°33' E 036°46'  
Track history (hours):
 
Tides and Currents Weather Stations Pressure Air Temp Water Temp Dewpoint Dewpoint Depression Visibility Wind Speed Wind Dir Waves Ship Positions

Volzhskiy-8

Last reported at 2018-Feb-21 20:15 UTC. Time now 2018-Feb-24 02:22 UTC.
Position N 45°31' E 036°49'.

Length 107 m; draft 2.7 m.

MMSI: 273310200.

Date/timePositionNaut miles runAvg speedWind from/ knotsBaromVisibWave heightAir tempDewpointWater temp
2018-Feb-21 20:15N 45°31' E 036°49'3 6.9
2018-Feb-21 19:45N 45°30' E 036°45'2 6.9
2018-Feb-21 19:29N 45°28' E 036°43'3 7.0
2018-Feb-21 19:00N 45°25' E 036°41'4 7.2
2018-Feb-21 18:31N 45°22' E 036°40'3 6.9
2018-Feb-21 18:00N 45°20' E 036°36'4 7.0
2018-Feb-21 17:30N 45°19' E 036°31'3 6.3
2018-Feb-21 17:00N 45°16' E 036°29'4 7.1
2018-Feb-21 16:26N 45°12' E 036°30'1 1.1
2018-Feb-21 15:59N 45°12' E 036°30'0 0.0
2018-Feb-21 14:43N 45°12' E 036°30'0 0.0
2018-Feb-21 14:29N 45°12' E 036°30'1 0.1
2018-Feb-20 13:38N 45°11' E 036°28'1 8.4
2018-Feb-20 13:28N 45°13' E 036°28'4 8.2
2018-Feb-20 13:00N 45°17' E 036°28'4 7.4
2018-Feb-20 12:30N 45°19' E 036°32'4 8.1
2018-Feb-20 12:00N 45°21' E 036°37'3 7.0
2018-Feb-20 11:30N 45°24' E 036°40'4 8.1
2018-Feb-20 11:00N 45°28' E 036°40'1 2.4
2018-Feb-20 10:31N 45°29' E 036°40'0 0.0
2018-Feb-20 10:00N 45°29' E 036°40'0 0.0
2018-Feb-20 09:30N 45°29' E 036°40'0 0.0
2018-Feb-20 09:01N 45°29' E 036°39'3 5.2
2018-Feb-20 08:30N 45°30' E 036°43'4 7.4
2018-Feb-20 08:00N 45°33' E 036°46'  

Dump ship's entire track history